Terminal Aerodrome Forecast
Issued by NWS

Current Version | Previous Version | Text Only | Print | Product List | Glossary On
Versions: 1 2 3 4 5 6 7 8 9 10 11 12 13 14 15
000
FTAK31 PAJN 192300
TAFASI
TAF
PASI 192337Z 2000/2024 10018G25KT P6SM VCSH FEW040 OVC060
      WS020/14040KT
      TEMPO 2000/2003 5SM -RA BR BKN025 OVC030
     FM200300 12012G20KT 4SM -RA BR BKN025 OVC030 WS020/14030KT
     FM200600 12012KT 4SM -RA OVC025=

USA.gov is the U.S. government's official web portal to all federal, state and local government web resources and services.